sensor_id;sensor_type;location;lat;lon;timestamp;P1;durP1;ratioP1;P2;durP2;ratioP2
56037;SDS011;41907;47.848;9.000;2024-03-22T00:00:19;10.20;;;7.65;;
56037;SDS011;41907;47.848;9.000;2024-03-22T00:02:44;11.40;;;7.15;;
56037;SDS011;41907;47.848;9.000;2024-03-22T00:05:09;10.43;;;7.68;;
56037;SDS011;41907;47.848;9.000;2024-03-22T00:07:35;11.63;;;7.63;;
56037;SDS011;41907;47.848;9.000;2024-03-22T00:10:01;11.65;;;6.95;;
56037;SDS011;41907;47.848;9.000;2024-03-22T00:12:27;11.35;;;7.25;;
56037;SDS011;41907;47.848;9.000;2024-03-22T00:14:52;10.65;;;7.30;;
56037;SDS011;41907;47.848;9.000;2024-03-22T00:17:19;11.15;;;7.20;;
56037;SDS011;41907;47.848;9.000;2024-03-22T00:19:45;10.15;;;7.30;;
56037;SDS011;41907;47.848;9.000;2024-03-22T00:22:10;12.65;;;7.65;;
56037;SDS011;41907;47.848;9.000;2024-03-22T00:24:35;12.65;;;8.70;;
56037;SDS011;41907;47.848;9.000;2024-03-22T00:27:01;17.52;;;8.68;;
56037;SDS011;41907;47.848;9.000;2024-03-22T00:29:26;12.10;;;9.70;;
56037;SDS011;41907;47.848;9.000;2024-03-22T00:31:51;11.75;;;8.48;;
56037;SDS011;41907;47.848;9.000;2024-03-22T00:34:17;14.18;;;9.27;;
56037;SDS011;41907;47.848;9.000;2024-03-22T00:36:42;16.02;;;9.27;;
56037;SDS011;41907;47.848;9.000;2024-03-22T00:39:08;14.93;;;9.38;;
56037;SDS011;41907;47.848;9.000;2024-03-22T00:41:33;11.45;;;8.73;;
56037;SDS011;41907;47.848;9.000;2024-03-22T00:43:58;18.33;;;9.23;;
56037;SDS011;41907;47.848;9.000;2024-03-22T00:46:24;15.77;;;9.80;;
56037;SDS011;41907;47.848;9.000;2024-03-22T00:48:49;14.93;;;9.55;;
56037;SDS011;41907;47.848;9.000;2024-03-22T00:51:15;15.43;;;9.00;;
56037;SDS011;41907;47.848;9.000;2024-03-22T00:53:40;18.98;;;10.40;;
56037;SDS011;41907;47.848;9.000;2024-03-22T00:56:05;15.63;;;9.85;;
56037;SDS011;41907;47.848;9.000;2024-03-22T00:58:31;18.13;;;10.15;;
56037;SDS011;41907;47.848;9.000;2024-03-22T01:00:56;14.65;;;10.18;;
56037;SDS011;41907;47.848;9.000;2024-03-22T01:03:22;16.95;;;10.75;;
56037;SDS011;41907;47.848;9.000;2024-03-22T01:05:47;17.63;;;10.50;;
56037;SDS011;41907;47.848;9.000;2024-03-22T01:08:13;16.23;;;9.63;;
56037;SDS011;41907;47.848;9.000;2024-03-22T01:10:38;14.70;;;9.65;;
56037;SDS011;41907;47.848;9.000;2024-03-22T01:13:03;19.15;;;10.40;;
56037;SDS011;41907;47.848;9.000;2024-03-22T01:15:29;13.65;;;9.13;;
56037;SDS011;41907;47.848;9.000;2024-03-22T01:17:54;14.30;;;9.85;;
56037;SDS011;41907;47.848;9.000;2024-03-22T01:20:20;16.77;;;10.35;;
56037;SDS011;41907;47.848;9.000;2024-03-22T01:22:45;13.10;;;9.52;;
56037;SDS011;41907;47.848;9.000;2024-03-22T01:25:11;13.52;;;9.43;;
56037;SDS011;41907;47.848;9.000;2024-03-22T01:27:36;17.38;;;9.25;;
56037;SDS011;41907;47.848;9.000;2024-03-22T01:30:01;14.18;;;9.50;;
56037;SDS011;41907;47.848;9.000;2024-03-22T01:32:27;18.33;;;9.73;;
56037;SDS011;41907;47.848;9.000;2024-03-22T01:34:53;12.95;;;9.00;;
56037;SDS011;41907;47.848;9.000;2024-03-22T01:37:18;13.15;;;8.50;;
56037;SDS011;41907;47.848;9.000;2024-03-22T01:39:43;13.85;;;9.32;;
56037;SDS011;41907;47.848;9.000;2024-03-22T01:42:09;15.20;;;9.43;;
56037;SDS011;41907;47.848;9.000;2024-03-22T01:44:34;13.70;;;9.27;;
56037;SDS011;41907;47.848;9.000;2024-03-22T01:46:59;17.40;;;9.80;;
56037;SDS011;41907;47.848;9.000;2024-03-22T01:49:25;15.80;;;10.55;;
56037;SDS011;41907;47.848;9.000;2024-03-22T01:51:52;15.60;;;10.77;;
56037;SDS011;41907;47.848;9.000;2024-03-22T01:54:17;16.42;;;10.48;;
56037;SDS011;41907;47.848;9.000;2024-03-22T01:56:45;13.52;;;9.50;;
56037;SDS011;41907;47.848;9.000;2024-03-22T01:59:11;22.88;;;11.57;;
56037;SDS011;41907;47.848;9.000;2024-03-22T02:01:37;17.35;;;10.60;;
56037;SDS011;41907;47.848;9.000;2024-03-22T02:04:02;16.30;;;11.10;;
56037;SDS011;41907;47.848;9.000;2024-03-22T02:06:28;17.35;;;11.48;;
56037;SDS011;41907;47.848;9.000;2024-03-22T02:08:53;22.17;;;11.43;;
56037;SDS011;41907;47.848;9.000;2024-03-22T02:11:19;14.48;;;9.65;;
56037;SDS011;41907;47.848;9.000;2024-03-22T02:13:45;15.63;;;10.85;;
56037;SDS011;41907;47.848;9.000;2024-03-22T02:16:10;16.02;;;10.68;;
56037;SDS011;41907;47.848;9.000;2024-03-22T02:18:36;15.05;;;10.73;;
56037;SDS011;41907;47.848;9.000;2024-03-22T02:21:01;18.48;;;11.38;;
56037;SDS011;41907;47.848;9.000;2024-03-22T02:23:37;15.90;;;11.02;;
56037;SDS011;41907;47.848;9.000;2024-03-22T02:26:03;16.42;;;10.60;;
56037;SDS011;41907;47.848;9.000;2024-03-22T02:28:30;18.50;;;11.32;;
56037;SDS011;41907;47.848;9.000;2024-03-22T02:30:57;19.02;;;11.07;;
56037;SDS011;41907;47.848;9.000;2024-03-22T02:33:22;18.45;;;10.77;;
56037;SDS011;41907;47.848;9.000;2024-03-22T02:35:48;18.90;;;10.90;;
56037;SDS011;41907;47.848;9.000;2024-03-22T02:38:14;17.48;;;11.80;;
56037;SDS011;41907;47.848;9.000;2024-03-22T02:40:42;20.00;;;10.15;;
56037;SDS011;41907;47.848;9.000;2024-03-22T02:43:08;22.80;;;11.70;;
56037;SDS011;41907;47.848;9.000;2024-03-22T02:45:34;16.52;;;10.98;;
56037;SDS011;41907;47.848;9.000;2024-03-22T02:47:59;20.60;;;11.60;;
56037;SDS011;41907;47.848;9.000;2024-03-22T02:50:24;16.33;;;11.25;;
56037;SDS011;41907;47.848;9.000;2024-03-22T02:52:50;26.05;;;12.77;;
56037;SDS011;41907;47.848;9.000;2024-03-22T02:55:15;20.05;;;10.70;;
56037;SDS011;41907;47.848;9.000;2024-03-22T02:57:40;19.77;;;11.68;;
56037;SDS011;41907;47.848;9.000;2024-03-22T03:00:06;19.92;;;11.90;;
56037;SDS011;41907;47.848;9.000;2024-03-22T03:02:32;17.80;;;12.07;;
56037;SDS011;41907;47.848;9.000;2024-03-22T03:04:57;14.85;;;10.18;;
56037;SDS011;41907;47.848;9.000;2024-03-22T03:07:26;14.95;;;10.25;;
56037;SDS011;41907;47.848;9.000;2024-03-22T03:09:52;14.73;;;10.43;;
56037;SDS011;41907;47.848;9.000;2024-03-22T03:12:18;17.20;;;10.23;;
56037;SDS011;41907;47.848;9.000;2024-03-22T03:14:43;13.40;;;9.25;;
56037;SDS011;41907;47.848;9.000;2024-03-22T03:17:08;15.30;;;10.43;;
56037;SDS011;41907;47.848;9.000;2024-03-22T03:19:34;19.48;;;11.07;;
56037;SDS011;41907;47.848;9.000;2024-03-22T03:21:59;17.48;;;10.32;;
56037;SDS011;41907;47.848;9.000;2024-03-22T03:24:24;16.60;;;9.55;;
56037;SDS011;41907;47.848;9.000;2024-03-22T03:26:50;15.45;;;10.07;;
56037;SDS011;41907;47.848;9.000;2024-03-22T03:29:15;19.50;;;10.35;;
56037;SDS011;41907;47.848;9.000;2024-03-22T03:31:40;16.00;;;9.05;;
56037;SDS011;41907;47.848;9.000;2024-03-22T03:34:06;19.63;;;10.15;;
56037;SDS011;41907;47.848;9.000;2024-03-22T03:36:31;15.30;;;10.27;;
56037;SDS011;41907;47.848;9.000;2024-03-22T03:38:56;15.95;;;9.90;;
56037;SDS011;41907;47.848;9.000;2024-03-22T03:41:22;18.20;;;10.40;;
56037;SDS011;41907;47.848;9.000;2024-03-22T03:43:47;18.30;;;10.45;;
56037;SDS011;41907;47.848;9.000;2024-03-22T03:46:12;14.90;;;10.00;;
56037;SDS011;41907;47.848;9.000;2024-03-22T03:48:38;15.32;;;10.27;;
56037;SDS011;41907;47.848;9.000;2024-03-22T03:51:03;16.70;;;10.70;;
56037;SDS011;41907;47.848;9.000;2024-03-22T03:53:29;16.60;;;10.55;;
56037;SDS011;41907;47.848;9.000;2024-03-22T03:55:55;18.25;;;10.63;;
56037;SDS011;41907;47.848;9.000;2024-03-22T03:58:20;16.17;;;11.88;;
56037;SDS011;41907;47.848;9.000;2024-03-22T04:00:46;17.65;;;11.38;;
56037;SDS011;41907;47.848;9.000;2024-03-22T04:03:11;18.42;;;10.85;;
56037;SDS011;41907;47.848;9.000;2024-03-22T04:05:36;20.92;;;11.85;;
56037;SDS011;41907;47.848;9.000;2024-03-22T04:08:02;18.08;;;11.13;;
56037;SDS011;41907;47.848;9.000;2024-03-22T04:10:27;18.73;;;10.35;;
56037;SDS011;41907;47.848;9.000;2024-03-22T04:12:52;17.98;;;11.02;;
56037;SDS011;41907;47.848;9.000;2024-03-22T04:15:18;14.10;;;10.95;;
56037;SDS011;41907;47.848;9.000;2024-03-22T04:17:43;15.77;;;10.48;;
56037;SDS011;41907;47.848;9.000;2024-03-22T04:20:09;21.15;;;11.73;;
56037;SDS011;41907;47.848;9.000;2024-03-22T04:22:36;18.35;;;12.00;;
56037;SDS011;41907;47.848;9.000;2024-03-22T04:25:01;18.77;;;11.15;;
56037;SDS011;41907;47.848;9.000;2024-03-22T04:27:27;19.98;;;11.70;;
56037;SDS011;41907;47.848;9.000;2024-03-22T04:29:52;17.17;;;10.95;;
56037;SDS011;41907;47.848;9.000;2024-03-22T04:32:18;15.25;;;11.25;;
56037;SDS011;41907;47.848;9.000;2024-03-22T04:34:43;18.92;;;11.73;;
56037;SDS011;41907;47.848;9.000;2024-03-22T04:37:09;16.58;;;11.15;;
56037;SDS011;41907;47.848;9.000;2024-03-22T04:39:35;20.95;;;12.35;;
56037;SDS011;41907;47.848;9.000;2024-03-22T04:42:01;16.55;;;10.85;;
56037;SDS011;41907;47.848;9.000;2024-03-22T04:44:26;17.08;;;11.05;;
56037;SDS011;41907;47.848;9.000;2024-03-22T04:46:52;17.90;;;12.10;;
56037;SDS011;41907;47.848;9.000;2024-03-22T04:49:17;16.17;;;10.25;;
56037;SDS011;41907;47.848;9.000;2024-03-22T04:51:43;14.15;;;9.95;;
56037;SDS011;41907;47.848;9.000;2024-03-22T04:54:08;16.98;;;10.82;;
56037;SDS011;41907;47.848;9.000;2024-03-22T04:56:33;13.48;;;9.38;;
56037;SDS011;41907;47.848;9.000;2024-03-22T04:58:59;17.60;;;9.85;;
56037;SDS011;41907;47.848;9.000;2024-03-22T05:01:24;16.17;;;9.38;;
56037;SDS011;41907;47.848;9.000;2024-03-22T05:03:50;13.98;;;8.88;;
56037;SDS011;41907;47.848;9.000;2024-03-22T05:06:15;18.80;;;10.50;;
56037;SDS011;41907;47.848;9.000;2024-03-22T05:08:40;12.27;;;9.65;;
56037;SDS011;41907;47.848;9.000;2024-03-22T05:11:06;14.02;;;9.48;;
56037;SDS011;41907;47.848;9.000;2024-03-22T05:13:32;16.17;;;9.27;;
56037;SDS011;41907;47.848;9.000;2024-03-22T05:15:58;14.13;;;9.75;;
56037;SDS011;41907;47.848;9.000;2024-03-22T05:18:23;20.50;;;10.32;;
56037;SDS011;41907;47.848;9.000;2024-03-22T05:20:49;14.40;;;9.40;;
56037;SDS011;41907;47.848;9.000;2024-03-22T05:23:14;13.63;;;9.32;;
56037;SDS011;41907;47.848;9.000;2024-03-22T05:25:41;14.18;;;8.55;;
56037;SDS011;41907;47.848;9.000;2024-03-22T05:28:07;14.55;;;8.85;;
56037;SDS011;41907;47.848;9.000;2024-03-22T05:30:32;16.38;;;9.40;;
56037;SDS011;41907;47.848;9.000;2024-03-22T05:32:58;14.80;;;9.48;;
56037;SDS011;41907;47.848;9.000;2024-03-22T05:35:23;18.20;;;9.07;;
56037;SDS011;41907;47.848;9.000;2024-03-22T05:37:49;12.70;;;8.70;;
56037;SDS011;41907;47.848;9.000;2024-03-22T05:40:14;14.90;;;9.90;;
56037;SDS011;41907;47.848;9.000;2024-03-22T05:42:41;12.20;;;8.35;;
56037;SDS011;41907;47.848;9.000;2024-03-22T05:45:06;11.05;;;8.00;;
56037;SDS011;41907;47.848;9.000;2024-03-22T05:47:32;12.10;;;8.05;;
56037;SDS011;41907;47.848;9.000;2024-03-22T05:49:58;15.63;;;9.80;;
56037;SDS011;41907;47.848;9.000;2024-03-22T05:52:24;12.95;;;8.80;;
56037;SDS011;41907;47.848;9.000;2024-03-22T05:54:50;16.13;;;8.55;;
56037;SDS011;41907;47.848;9.000;2024-03-22T05:57:16;14.60;;;9.35;;
56037;SDS011;41907;47.848;9.000;2024-03-22T05:59:42;14.32;;;9.13;;
56037;SDS011;41907;47.848;9.000;2024-03-22T06:02:07;16.80;;;9.32;;
56037;SDS011;41907;47.848;9.000;2024-03-22T06:04:33;15.13;;;9.48;;
56037;SDS011;41907;47.848;9.000;2024-03-22T06:06:58;16.90;;;9.40;;
56037;SDS011;41907;47.848;9.000;2024-03-22T06:09:25;17.50;;;10.07;;
56037;SDS011;41907;47.848;9.000;2024-03-22T06:14:36;20.70;;;10.00;;
56037;SDS011;41907;47.848;9.000;2024-03-22T06:17:03;15.93;;;9.70;;
56037;SDS011;41907;47.848;9.000;2024-03-22T06:19:28;16.00;;;9.85;;
56037;SDS011;41907;47.848;9.000;2024-03-22T06:21:54;17.23;;;9.88;;
56037;SDS011;41907;47.848;9.000;2024-03-22T06:24:19;19.58;;;10.02;;
56037;SDS011;41907;47.848;9.000;2024-03-22T06:26:44;16.23;;;9.90;;
56037;SDS011;41907;47.848;9.000;2024-03-22T06:29:10;15.27;;;10.05;;
56037;SDS011;41907;47.848;9.000;2024-03-22T06:31:35;19.48;;;10.18;;
56037;SDS011;41907;47.848;9.000;2024-03-22T06:34:00;13.68;;;9.25;;
56037;SDS011;41907;47.848;9.000;2024-03-22T06:36:30;16.67;;;10.18;;
56037;SDS011;41907;47.848;9.000;2024-03-22T06:38:57;14.73;;;9.65;;
56037;SDS011;41907;47.848;9.000;2024-03-22T06:41:22;17.55;;;10.45;;
56037;SDS011;41907;47.848;9.000;2024-03-22T06:43:47;15.40;;;9.00;;
56037;SDS011;41907;47.848;9.000;2024-03-22T06:46:13;17.90;;;9.43;;
56037;SDS011;41907;47.848;9.000;2024-03-22T06:48:38;13.68;;;8.88;;
56037;SDS011;41907;47.848;9.000;2024-03-22T06:51:03;13.88;;;8.65;;
56037;SDS011;41907;47.848;9.000;2024-03-22T06:53:29;15.77;;;8.55;;
56037;SDS011;41907;47.848;9.000;2024-03-22T06:55:54;14.68;;;8.43;;
56037;SDS011;41907;47.848;9.000;2024-03-22T06:58:19;13.70;;;9.07;;
56037;SDS011;41907;47.848;9.000;2024-03-22T07:00:45;13.65;;;8.65;;
56037;SDS011;41907;47.848;9.000;2024-03-22T07:03:10;12.30;;;8.23;;
56037;SDS011;41907;47.848;9.000;2024-03-22T07:05:35;11.45;;;7.53;;
56037;SDS011;41907;47.848;9.000;2024-03-22T07:08:01;9.75;;;6.45;;
56037;SDS011;41907;47.848;9.000;2024-03-22T07:10:26;11.23;;;6.72;;
56037;SDS011;41907;47.848;9.000;2024-03-22T07:12:55;11.48;;;6.85;;
56037;SDS011;41907;47.848;9.000;2024-03-22T07:15:24;9.32;;;6.55;;
56037;SDS011;41907;47.848;9.000;2024-03-22T07:17:49;9.57;;;5.90;;
56037;SDS011;41907;47.848;9.000;2024-03-22T07:20:15;9.85;;;6.15;;
56037;SDS011;41907;47.848;9.000;2024-03-22T07:22:41;8.65;;;6.82;;
56037;SDS011;41907;47.848;9.000;2024-03-22T07:25:06;8.75;;;6.10;;
56037;SDS011;41907;47.848;9.000;2024-03-22T07:27:34;10.70;;;5.65;;
56037;SDS011;41907;47.848;9.000;2024-03-22T07:30:00;10.85;;;5.82;;
56037;SDS011;41907;47.848;9.000;2024-03-22T07:32:26;8.00;;;6.38;;
56037;SDS011;41907;47.848;9.000;2024-03-22T07:34:51;7.10;;;6.07;;
56037;SDS011;41907;47.848;9.000;2024-03-22T07:37:16;11.40;;;6.47;;
56037;SDS011;41907;47.848;9.000;2024-03-22T07:39:42;8.02;;;5.95;;
56037;SDS011;41907;47.848;9.000;2024-03-22T07:42:07;7.88;;;5.65;;
56037;SDS011;41907;47.848;9.000;2024-03-22T07:44:32;13.35;;;6.05;;
56037;SDS011;41907;47.848;9.000;2024-03-22T07:46:58;10.27;;;6.68;;
56037;SDS011;41907;47.848;9.000;2024-03-22T07:49:23;7.50;;;6.70;;
56037;SDS011;41907;47.848;9.000;2024-03-22T07:51:49;9.65;;;6.13;;
56037;SDS011;41907;47.848;9.000;2024-03-22T07:54:14;7.18;;;5.53;;
56037;SDS011;41907;47.848;9.000;2024-03-22T07:56:39;10.82;;;6.18;;
56037;SDS011;41907;47.848;9.000;2024-03-22T07:59:05;8.65;;;6.35;;
56037;SDS011;41907;47.848;9.000;2024-03-22T08:01:30;11.40;;;7.75;;
56037;SDS011;41907;47.848;9.000;2024-03-22T08:03:56;11.18;;;6.57;;
56037;SDS011;41907;47.848;9.000;2024-03-22T08:06:21;17.67;;;7.47;;
56037;SDS011;41907;47.848;9.000;2024-03-22T08:08:46;9.77;;;7.10;;
56037;SDS011;41907;47.848;9.000;2024-03-22T08:11:12;17.92;;;7.40;;
56037;SDS011;41907;47.848;9.000;2024-03-22T08:13:37;25.30;;;8.15;;
56037;SDS011;41907;47.848;9.000;2024-03-22T08:16:03;17.38;;;11.25;;
56037;SDS011;41907;47.848;9.000;2024-03-22T08:18:29;18.00;;;8.50;;
56037;SDS011;41907;47.848;9.000;2024-03-22T08:20:54;11.88;;;7.80;;
56037;SDS011;41907;47.848;9.000;2024-03-22T08:23:20;18.20;;;9.93;;
56037;SDS011;41907;47.848;9.000;2024-03-22T08:25:47;11.82;;;7.72;;
56037;SDS011;41907;47.848;9.000;2024-03-22T08:28:13;12.05;;;7.22;;
56037;SDS011;41907;47.848;9.000;2024-03-22T08:30:38;10.23;;;6.85;;
56037;SDS011;41907;47.848;9.000;2024-03-22T08:33:04;13.60;;;7.97;;
56037;SDS011;41907;47.848;9.000;2024-03-22T08:35:30;19.88;;;7.78;;
56037;SDS011;41907;47.848;9.000;2024-03-22T08:37:55;20.73;;;7.90;;
56037;SDS011;41907;47.848;9.000;2024-03-22T08:40:21;24.75;;;9.57;;
56037;SDS011;41907;47.848;9.000;2024-03-22T08:42:48;35.03;;;11.10;;
56037;SDS011;41907;47.848;9.000;2024-03-22T08:45:13;23.23;;;8.75;;
56037;SDS011;41907;47.848;9.000;2024-03-22T08:47:39;20.33;;;7.45;;
56037;SDS011;41907;47.848;9.000;2024-03-22T08:50:05;13.32;;;7.82;;
56037;SDS011;41907;47.848;9.000;2024-03-22T08:52:31;13.38;;;6.88;;
56037;SDS011;41907;47.848;9.000;2024-03-22T08:54:57;14.27;;;6.35;;
56037;SDS011;41907;47.848;9.000;2024-03-22T08:57:22;10.05;;;6.22;;
56037;SDS011;41907;47.848;9.000;2024-03-22T08:59:48;14.25;;;6.25;;
56037;SDS011;41907;47.848;9.000;2024-03-22T09:02:13;7.10;;;5.40;;
56037;SDS011;41907;47.848;9.000;2024-03-22T09:04:39;11.27;;;5.75;;
56037;SDS011;41907;47.848;9.000;2024-03-22T09:07:05;9.60;;;5.00;;
56037;SDS011;41907;47.848;9.000;2024-03-22T09:09:30;11.43;;;5.57;;
56037;SDS011;41907;47.848;9.000;2024-03-22T09:11:56;8.00;;;5.20;;
56037;SDS011;41907;47.848;9.000;2024-03-22T09:14:21;7.53;;;4.95;;
56037;SDS011;41907;47.848;9.000;2024-03-22T09:16:46;8.80;;;4.90;;
56037;SDS011;41907;47.848;9.000;2024-03-22T09:19:12;7.68;;;4.90;;
56037;SDS011;41907;47.848;9.000;2024-03-22T09:21:37;6.45;;;5.03;;
56037;SDS011;41907;47.848;9.000;2024-03-22T09:24:03;13.50;;;6.10;;
56037;SDS011;41907;47.848;9.000;2024-03-22T09:26:28;10.98;;;5.72;;
56037;SDS011;41907;47.848;9.000;2024-03-22T09:28:54;7.25;;;4.97;;
56037;SDS011;41907;47.848;9.000;2024-03-22T09:31:19;8.80;;;5.25;;
56037;SDS011;41907;47.848;9.000;2024-03-22T09:33:45;5.90;;;4.50;;
56037;SDS011;41907;47.848;9.000;2024-03-22T09:36:10;6.18;;;4.40;;
56037;SDS011;41907;47.848;9.000;2024-03-22T09:38:35;6.95;;;4.60;;
56037;SDS011;41907;47.848;9.000;2024-03-22T09:41:01;7.38;;;5.28;;
56037;SDS011;41907;47.848;9.000;2024-03-22T09:43:30;7.10;;;4.95;;
56037;SDS011;41907;47.848;9.000;2024-03-22T09:45:57;7.07;;;5.13;;
56037;SDS011;41907;47.848;9.000;2024-03-22T09:48:23;10.95;;;5.57;;
56037;SDS011;41907;47.848;9.000;2024-03-22T09:50:49;6.80;;;4.88;;
56037;SDS011;41907;47.848;9.000;2024-03-22T09:53:20;7.55;;;4.80;;
56037;SDS011;41907;47.848;9.000;2024-03-22T09:55:50;5.80;;;4.78;;
56037;SDS011;41907;47.848;9.000;2024-03-22T09:58:17;12.20;;;6.60;;
56037;SDS011;41907;47.848;9.000;2024-03-22T10:00:43;5.70;;;4.97;;
56037;SDS011;41907;47.848;9.000;2024-03-22T10:03:09;6.88;;;4.47;;
56037;SDS011;41907;47.848;9.000;2024-03-22T10:05:35;7.68;;;4.75;;
56037;SDS011;41907;47.848;9.000;2024-03-22T10:08:01;5.60;;;4.55;;
56037;SDS011;41907;47.848;9.000;2024-03-22T10:10:27;6.47;;;4.90;;
56037;SDS011;41907;47.848;9.000;2024-03-22T10:12:52;6.93;;;4.28;;
56037;SDS011;41907;47.848;9.000;2024-03-22T10:15:18;4.78;;;3.33;;
56037;SDS011;41907;47.848;9.000;2024-03-22T10:17:43;6.47;;;3.60;;
56037;SDS011;41907;47.848;9.000;2024-03-22T10:20:12;5.38;;;3.80;;
56037;SDS011;41907;47.848;9.000;2024-03-22T10:22:41;6.68;;;3.83;;
56037;SDS011;41907;47.848;9.000;2024-03-22T10:25:14;4.10;;;3.00;;
56037;SDS011;41907;47.848;9.000;2024-03-22T10:27:39;5.85;;;3.42;;
56037;SDS011;41907;47.848;9.000;2024-03-22T10:30:09;7.90;;;3.55;;
56037;SDS011;41907;47.848;9.000;2024-03-22T10:32:36;3.75;;;2.80;;
56037;SDS011;41907;47.848;9.000;2024-03-22T10:35:04;5.03;;;2.88;;
56037;SDS011;41907;47.848;9.000;2024-03-22T10:37:32;2.70;;;2.50;;
56037;SDS011;41907;47.848;9.000;2024-03-22T10:40:01;4.78;;;3.35;;
56037;SDS011;41907;47.848;9.000;2024-03-22T10:42:34;5.22;;;2.90;;
56037;SDS011;41907;47.848;9.000;2024-03-22T10:45:04;4.20;;;2.88;;
56037;SDS011;41907;47.848;9.000;2024-03-22T10:47:31;6.32;;;2.80;;
56037;SDS011;41907;47.848;9.000;2024-03-22T10:50:10;5.18;;;2.33;;
56037;SDS011;41907;47.848;9.000;2024-03-22T10:55:24;6.10;;;2.92;;
56037;SDS011;41907;47.848;9.000;2024-03-22T10:57:57;4.03;;;2.53;;
56037;SDS011;41907;47.848;9.000;2024-03-22T11:00:29;4.13;;;2.53;;
56037;SDS011;41907;47.848;9.000;2024-03-22T11:02:55;3.38;;;2.05;;
56037;SDS011;41907;47.848;9.000;2024-03-22T11:05:21;4.13;;;2.38;;
56037;SDS011;41907;47.848;9.000;2024-03-22T11:07:46;4.47;;;2.67;;
56037;SDS011;41907;47.848;9.000;2024-03-22T11:10:12;4.45;;;2.47;;
56037;SDS011;41907;47.848;9.000;2024-03-22T11:12:37;3.33;;;2.17;;
56037;SDS011;41907;47.848;9.000;2024-03-22T11:15:04;4.70;;;2.63;;
56037;SDS011;41907;47.848;9.000;2024-03-22T11:17:30;2.60;;;2.20;;
56037;SDS011;41907;47.848;9.000;2024-03-22T11:19:55;4.65;;;2.63;;
56037;SDS011;41907;47.848;9.000;2024-03-22T11:22:21;3.95;;;2.10;;
56037;SDS011;41907;47.848;9.000;2024-03-22T11:24:46;3.97;;;2.70;;
56037;SDS011;41907;47.848;9.000;2024-03-22T11:27:11;3.90;;;2.45;;
56037;SDS011;41907;47.848;9.000;2024-03-22T11:29:37;5.22;;;2.72;;
56037;SDS011;41907;47.848;9.000;2024-03-22T11:32:07;4.18;;;1.88;;
56037;SDS011;41907;47.848;9.000;2024-03-22T11:34:36;4.40;;;2.40;;
56037;SDS011;41907;47.848;9.000;2024-03-22T11:37:02;3.25;;;2.10;;
56037;SDS011;41907;47.848;9.000;2024-03-22T11:39:28;3.70;;;2.53;;
56037;SDS011;41907;47.848;9.000;2024-03-22T11:41:54;3.03;;;1.98;;
56037;SDS011;41907;47.848;9.000;2024-03-22T11:44:20;4.35;;;3.28;;
56037;SDS011;41907;47.848;9.000;2024-03-22T11:46:47;3.30;;;2.30;;
56037;SDS011;41907;47.848;9.000;2024-03-22T11:49:13;5.60;;;2.50;;
56037;SDS011;41907;47.848;9.000;2024-03-22T11:51:38;5.70;;;2.60;;
56037;SDS011;41907;47.848;9.000;2024-03-22T11:54:04;5.65;;;4.15;;
56037;SDS011;41907;47.848;9.000;2024-03-22T11:56:34;5.50;;;4.30;;
56037;SDS011;41907;47.848;9.000;2024-03-22T11:59:00;4.72;;;2.67;;
56037;SDS011;41907;47.848;9.000;2024-03-22T12:01:26;4.20;;;2.67;;
56037;SDS011;41907;47.848;9.000;2024-03-22T12:03:52;4.57;;;2.10;;
56037;SDS011;41907;47.848;9.000;2024-03-22T12:06:18;2.45;;;2.20;;
56037;SDS011;41907;47.848;9.000;2024-03-22T12:08:43;3.65;;;2.08;;
56037;SDS011;41907;47.848;9.000;2024-03-22T12:11:09;3.22;;;2.10;;
56037;SDS011;41907;47.848;9.000;2024-03-22T12:13:35;2.30;;;2.10;;
56037;SDS011;41907;47.848;9.000;2024-03-22T12:16:01;4.13;;;2.42;;
56037;SDS011;41907;47.848;9.000;2024-03-22T12:18:28;3.00;;;2.38;;
56037;SDS011;41907;47.848;9.000;2024-03-22T12:20:54;4.20;;;2.38;;
56037;SDS011;41907;47.848;9.000;2024-03-22T12:23:19;4.57;;;2.90;;
56037;SDS011;41907;47.848;9.000;2024-03-22T12:25:44;5.97;;;4.88;;
56037;SDS011;41907;47.848;9.000;2024-03-22T12:28:10;6.47;;;3.13;;
56037;SDS011;41907;47.848;9.000;2024-03-22T12:30:35;6.68;;;3.20;;
56037;SDS011;41907;47.848;9.000;2024-03-22T12:33:01;3.70;;;2.55;;
56037;SDS011;41907;47.848;9.000;2024-03-22T12:35:26;6.25;;;2.40;;
56037;SDS011;41907;47.848;9.000;2024-03-22T12:37:52;7.25;;;2.97;;
56037;SDS011;41907;47.848;9.000;2024-03-22T12:40:18;4.68;;;2.65;;
56037;SDS011;41907;47.848;9.000;2024-03-22T12:42:43;3.00;;;2.28;;
56037;SDS011;41907;47.848;9.000;2024-03-22T12:45:09;2.75;;;2.00;;
56037;SDS011;41907;47.848;9.000;2024-03-22T12:47:34;5.97;;;2.60;;
56037;SDS011;41907;47.848;9.000;2024-03-22T12:50:00;4.03;;;2.65;;
56037;SDS011;41907;47.848;9.000;2024-03-22T12:52:25;3.42;;;2.42;;
56037;SDS011;41907;47.848;9.000;2024-03-22T12:54:51;3.65;;;2.53;;
56037;SDS011;41907;47.848;9.000;2024-03-22T12:57:16;3.55;;;2.60;;
56037;SDS011;41907;47.848;9.000;2024-03-22T12:59:41;3.38;;;2.30;;
56037;SDS011;41907;47.848;9.000;2024-03-22T13:02:07;5.55;;;2.75;;
56037;SDS011;41907;47.848;9.000;2024-03-22T13:04:33;3.45;;;2.53;;
56037;SDS011;41907;47.848;9.000;2024-03-22T13:06:58;4.35;;;2.47;;
56037;SDS011;41907;47.848;9.000;2024-03-22T13:09:23;6.07;;;2.60;;
56037;SDS011;41907;47.848;9.000;2024-03-22T13:11:49;3.05;;;2.30;;
56037;SDS011;41907;47.848;9.000;2024-03-22T13:14:14;3.28;;;1.98;;
56037;SDS011;41907;47.848;9.000;2024-03-22T13:16:40;4.10;;;2.88;;
56037;SDS011;41907;47.848;9.000;2024-03-22T13:19:06;3.88;;;2.15;;
56037;SDS011;41907;47.848;9.000;2024-03-22T13:21:33;3.65;;;2.47;;
56037;SDS011;41907;47.848;9.000;2024-03-22T13:23:59;2.30;;;2.10;;
56037;SDS011;41907;47.848;9.000;2024-03-22T13:26:24;4.95;;;2.08;;
56037;SDS011;41907;47.848;9.000;2024-03-22T13:28:50;5.57;;;2.10;;
56037;SDS011;41907;47.848;9.000;2024-03-22T13:31:16;2.30;;;1.75;;
56037;SDS011;41907;47.848;9.000;2024-03-22T13:33:42;1.88;;;1.50;;
56037;SDS011;41907;47.848;9.000;2024-03-22T13:36:07;2.03;;;1.50;;
56037;SDS011;41907;47.848;9.000;2024-03-22T13:38:32;2.78;;;1.63;;
56037;SDS011;41907;47.848;9.000;2024-03-22T13:40:58;3.80;;;1.70;;
56037;SDS011;41907;47.848;9.000;2024-03-22T13:43:25;2.97;;;2.00;;
56037;SDS011;41907;47.848;9.000;2024-03-22T13:45:52;4.30;;;1.85;;
56037;SDS011;41907;47.848;9.000;2024-03-22T13:48:19;2.38;;;1.52;;
56037;SDS011;41907;47.848;9.000;2024-03-22T13:50:49;4.28;;;1.88;;
56037;SDS011;41907;47.848;9.000;2024-03-22T13:53:14;2.33;;;1.38;;
56037;SDS011;41907;47.848;9.000;2024-03-22T13:55:40;2.03;;;1.70;;
56037;SDS011;41907;47.848;9.000;2024-03-22T13:58:07;2.15;;;1.27;;
56037;SDS011;41907;47.848;9.000;2024-03-22T14:00:32;2.85;;;1.90;;
56037;SDS011;41907;47.848;9.000;2024-03-22T14:02:58;2.80;;;1.33;;
56037;SDS011;41907;47.848;9.000;2024-03-22T14:05:24;4.20;;;1.63;;
56037;SDS011;41907;47.848;9.000;2024-03-22T14:07:50;1.65;;;1.20;;
56037;SDS011;41907;47.848;9.000;2024-03-22T14:10:15;4.07;;;1.80;;
56037;SDS011;41907;47.848;9.000;2024-03-22T14:12:41;2.63;;;1.48;;
56037;SDS011;41907;47.848;9.000;2024-03-22T14:15:07;2.83;;;1.75;;
56037;SDS011;41907;47.848;9.000;2024-03-22T14:17:33;2.42;;;1.20;;
56037;SDS011;41907;47.848;9.000;2024-03-22T14:19:58;6.00;;;2.10;;
56037;SDS011;41907;47.848;9.000;2024-03-22T14:22:24;3.17;;;1.30;;
56037;SDS011;41907;47.848;9.000;2024-03-22T14:24:50;2.25;;;1.20;;
56037;SDS011;41907;47.848;9.000;2024-03-22T14:27:15;4.57;;;1.35;;
56037;SDS011;41907;47.848;9.000;2024-03-22T14:29:40;2.80;;;1.38;;
56037;SDS011;41907;47.848;9.000;2024-03-22T14:32:06;4.78;;;1.10;;